Time;durP1;ratioP1;P1;durP2;ratioP2;P2;SDS_P1;SDS_P2;PMS_P1;PMS_P2;Temp;Humidity;BMP_temperature;BMP_pressure;BME280_temperature;BME280_humidity;BME280_pressure;Samples;Min_cycle;Max_cycle;Signal;HPM_P1;HPM_P2
2022/10/05 00:07:45;;;;;;;42.70;5.50;;;;;;;;;;20586643;28;20087;-64
2022/10/05 00:17:47;;;;;;;25.58;4.25;;;;;;;;;;20603614;28;20047;-62
2022/10/05 00:27:59;;;;;;;31.10;5.32;;;;;;;;;;20601152;28;20055;-63
2022/10/05 00:38:01;;;;;;;40.15;5.38;;;;;;;;;;20614845;28;20201;-67
2022/10/05 00:48:06;;;;;;;34.22;5.43;;;;;;;;;;20599215;28;20051;-66
2022/10/05 00:58:08;;;;;;;30.88;4.55;;;;;;;;;;20613309;28;20046;-62
2022/10/05 01:08:21;;;;;;;37.28;5.65;;;;;;;;;;20597996;28;20057;-63
2022/10/05 01:18:29;;;;;;;30.08;6.72;;;;;;;;;;20597655;28;20411;-66
2022/10/05 01:28:55;;;;;;;25.45;4.20;;;;;;;;;;20596105;28;20070;-69
2022/10/05 01:39:09;;;;;;;24.23;4.22;;;;;;;;;;20595267;28;20058;-67
2022/10/05 01:49:31;;;;;;;25.45;5.40;;;;;;;;;;20594383;28;20077;-69
2022/10/05 01:59:59;;;;;;;34.10;5.43;;;;;;;;;;20593770;28;20414;-69
2022/10/05 02:10:08;;;;;;;35.35;5.55;;;;;;;;;;20593365;28;20090;-68
2022/10/05 02:20:17;;;;;;;30.55;5.90;;;;;;;;;;20592184;28;20063;-69
2022/10/05 02:30:25;;;;;;;25.23;4.85;;;;;;;;;;20591697;28;20530;-68
2022/10/05 02:40:51;;;;;;;29.77;4.93;;;;;;;;;;20589907;28;20419;-70
2022/10/05 02:51:02;;;;;;;33.40;5.53;;;;;;;;;;20590153;28;20051;-68
2022/10/05 03:01:11;;;;;;;25.95;4.25;;;;;;;;;;20590282;28;20074;-64
2022/10/05 03:11:21;;;;;;;28.92;4.95;;;;;;;;;;20588656;28;20117;-69
2022/10/05 03:21:39;;;;;;;33.92;5.10;;;;;;;;;;20588066;28;20054;-64
2022/10/05 03:31:53;;;;;;;27.90;5.45;;;;;;;;;;20587434;28;20145;-63
2022/10/05 03:41:57;;;;;;;41.63;4.97;;;;;;;;;;20586708;28;20054;-63
2022/10/05 03:52:03;;;;;;;25.17;5.22;;;;;;;;;;20589000;28;20062;-62
2022/10/05 04:02:10;;;;;;;34.30;6.93;;;;;;;;;;20604321;28;20117;-64
2022/10/05 04:12:13;;;;;;;27.02;5.75;;;;;;;;;;20603311;28;20411;-62
2022/10/05 04:22:22;;;;;;;32.10;4.47;;;;;;;;;;20617144;28;20046;-66
2022/10/05 04:32:24;;;;;;;37.13;5.63;;;;;;;;;;20601420;28;20078;-62
2022/10/05 04:42:47;;;;;;;21.98;4.90;;;;;;;;;;20600114;28;20069;-68
2022/10/05 04:52:52;;;;;;;37.80;7.82;;;;;;;;;;20599051;28;20058;-63
2022/10/05 05:03:03;;;;;;;30.50;5.30;;;;;;;;;;20598122;28;20407;-61
2022/10/05 05:13:24;;;;;;;27.83;5.13;;;;;;;;;;20597862;28;20050;-62
2022/10/05 05:23:34;;;;;;;35.85;5.82;;;;;;;;;;20597015;28;20046;-64
2022/10/05 05:33:59;;;;;;;31.20;4.95;;;;;;;;;;20596153;28;20105;-63
2022/10/05 05:44:14;;;;;;;42.88;6.38;;;;;;;;;;20586197;28;20054;-66
2022/10/05 05:54:16;;;;;;;31.27;5.03;;;;;;;;;;20585910;28;20062;-67
2022/10/05 06:04:22;;;;;;;33.70;5.95;;;;;;;;;;20569420;28;20073;-62
2022/10/05 06:14:31;;;;;;;28.73;6.10;;;;;;;;;;20585911;28;20080;-68
2022/10/05 06:24:33;;;;;;;29.05;5.25;;;;;;;;;;20591622;28;20125;-67
2022/10/05 06:34:39;;;;;;;25.40;6.45;;;;;;;;;;20592656;28;20061;-67
2022/10/05 06:44:44;;;;;;;30.67;6.03;;;;;;;;;;20591974;28;20055;-70
2022/10/05 06:55:05;;;;;;;31.13;6.22;;;;;;;;;;20590859;28;20518;-63
2022/10/05 07:05:25;;;;;;;36.67;6.60;;;;;;;;;;20590208;28;20050;-62
2022/10/05 07:15:46;;;;;;;39.83;6.55;;;;;;;;;;20589033;28;20480;-62
2022/10/05 07:25:51;;;;;;;32.58;5.53;;;;;;;;;;20588472;28;20093;-63
2022/10/05 07:46:35;;;;;;;29.38;5.53;;;;;;;;;;20587389;28;20059;-63
2022/10/05 07:56:40;;;;;;;45.30;5.85;;;;;;;;;;20588170;28;20092;-63
2022/10/05 08:06:45;;;;;;;34.55;5.25;;;;;;;;;;20586692;28;20059;-62
2022/10/05 08:16:48;;;;;;;31.92;6.72;;;;;;;;;;20586966;28;20444;-64
2022/10/05 08:26:51;;;;;;;28.23;6.00;;;;;;;;;;20585723;28;20079;-62
2022/10/05 08:37:05;;;;;;;29.23;4.95;;;;;;;;;;20584834;28;20440;-63
2022/10/05 08:47:10;;;;;;;40.30;10.95;;;;;;;;;;20599265;28;20054;-62
2022/10/05 08:57:16;;;;;;;22.73;4.65;;;;;;;;;;20601916;28;20510;-62
2022/10/05 09:07:27;;;;;;;25.48;4.95;;;;;;;;;;20599470;28;20134;-68
2022/10/05 09:17:38;;;;;;;10.63;2.70;;;;;;;;;;20598795;28;20043;-65
2022/10/05 09:28:01;;;;;;;12.23;2.20;;;;;;;;;;20597972;28;20419;-64
2022/10/05 09:38:26;;;;;;;14.38;2.60;;;;;;;;;;20595809;28;20130;-66
2022/10/05 09:48:47;;;;;;;10.85;2.83;;;;;;;;;;20585455;28;20059;-63
2022/10/05 09:58:55;;;;;;;6.43;2.38;;;;;;;;;;20569212;28;20053;-66
2022/10/05 10:09:19;;;;;;;15.38;2.78;;;;;;;;;;20584637;28;20086;-71
2022/10/05 10:19:32;;;;;;;9.52;2.47;;;;;;;;;;20586143;28;20054;-70
2022/10/05 10:29:38;;;;;;;18.63;2.70;;;;;;;;;;20591942;28;20106;-68
2022/10/05 10:39:46;;;;;;;13.43;3.05;;;;;;;;;;20590762;28;20488;-67
2022/10/05 10:49:51;;;;;;;16.52;2.47;;;;;;;;;;20604743;28;20058;-67
2022/10/05 10:59:56;;;;;;;16.27;3.13;;;;;;;;;;20603869;28;20057;-65
2022/10/05 11:10:03;;;;;;;12.60;3.13;;;;;;;;;;20588587;28;20518;-66
2022/10/05 11:20:09;;;;;;;17.98;2.95;;;;;;;;;;20588522;28;20475;-66
2022/10/05 11:30:14;;;;;;;24.00;3.67;;;;;;;;;;20589136;28;20050;-69
2022/10/05 11:40:16;;;;;;;14.93;3.33;;;;;;;;;;20587594;28;20065;-64
2022/10/05 11:50:25;;;;;;;15.35;2.88;;;;;;;;;;20587628;28;20066;-68
2022/10/05 12:00:35;;;;;;;16.55;2.78;;;;;;;;;;20602282;28;20058;-69
2022/10/05 12:10:51;;;;;;;19.05;3.00;;;;;;;;;;20587255;28;20051;-68
2022/10/05 12:20:54;;;;;;;12.70;2.20;;;;;;;;;;20598765;28;20127;-71
2022/10/05 12:31:06;;;;;;;15.77;4.63;;;;;;;;;;20600877;28;20551;-66
2022/10/05 12:41:27;;;;;;;12.95;3.00;;;;;;;;;;20613779;28;20043;-68
2022/10/05 12:51:36;;;;;;;15.75;2.80;;;;;;;;;;20598922;28;20058;-69
2022/10/05 13:01:45;;;;;;;16.13;3.80;;;;;;;;;;20597616;28;20053;-67
2022/10/05 13:11:49;;;;;;;17.50;2.70;;;;;;;;;;20598593;28;20065;-68
2022/10/05 13:22:10;;;;;;;18.38;2.80;;;;;;;;;;20596343;28;20054;-68
2022/10/05 13:32:22;;;;;;;13.38;2.33;;;;;;;;;;20596304;28;20086;-67
2022/10/05 13:42:32;;;;;;;12.32;2.80;;;;;;;;;;20594213;28;20089;-68
2022/10/05 13:52:55;;;;;;;17.05;3.40;;;;;;;;;;20594178;28;20057;-67
2022/10/05 14:03:00;;;;;;;13.77;2.50;;;;;;;;;;20592996;28;20057;-66
2022/10/05 14:13:12;;;;;;;16.63;2.75;;;;;;;;;;20591711;28;20058;-69
2022/10/05 14:23:23;;;;;;;18.30;3.22;;;;;;;;;;20591098;28;20161;-68
2022/10/05 14:33:30;;;;;;;12.32;2.90;;;;;;;;;;20607063;28;20407;-64
2022/10/05 14:43:34;;;;;;;20.70;3.22;;;;;;;;;;20589825;28;20066;-66
2022/10/05 14:53:42;;;;;;;14.30;2.95;;;;;;;;;;20589747;28;20467;-64
2022/10/05 15:04:02;;;;;;;16.38;3.25;;;;;;;;;;20590074;28;20472;-68
2022/10/05 15:14:24;;;;;;;14.73;3.55;;;;;;;;;;20590004;28;20487;-64
2022/10/05 15:24:31;;;;;;;21.90;2.53;;;;;;;;;;20587497;28;20047;-64
2022/10/05 15:34:33;;;;;;;21.20;3.93;;;;;;;;;;20586663;28;20066;-64
2022/10/05 15:44:55;;;;;;;16.65;3.22;;;;;;;;;;20586120;28;20110;-66
2022/10/05 15:55:09;;;;;;;21.30;4.00;;;;;;;;;;20608256;28;20190;-66
2022/10/05 16:05:18;;;;;;;20.67;3.67;;;;;;;;;;20612336;28;20051;-67
2022/10/05 16:15:28;;;;;;;25.77;3.45;;;;;;;;;;20612527;28;20058;-67
2022/10/05 16:25:42;;;;;;;25.63;3.90;;;;;;;;;;20612494;28;20051;-66
2022/10/05 16:35:58;;;;;;;16.27;4.03;;;;;;;;;;20625361;28;20051;-68
2022/10/05 16:46:06;;;;;;;23.52;9.13;;;;;;;;;;20610683;28;20047;-69
2022/10/05 16:56:18;;;;;;;23.23;6.50;;;;;;;;;;20611385;28;20051;-64
2022/10/05 17:06:21;;;;;;;20.20;5.18;;;;;;;;;;20599263;28;20134;-67
2022/10/05 17:16:35;;;;;;;37.83;12.52;;;;;;;;;;20597981;28;20542;-64
2022/10/05 17:26:43;;;;;;;25.55;6.32;;;;;;;;;;20596749;28;20051;-66
2022/10/05 17:36:52;;;;;;;21.20;5.85;;;;;;;;;;20595916;28;20055;-64
2022/10/05 17:47:03;;;;;;;24.55;6.68;;;;;;;;;;20594857;28;20105;-67
2022/10/05 17:57:05;;;;;;;21.98;8.38;;;;;;;;;;20594481;28;20101;-62
2022/10/05 18:07:27;;;;;;;21.27;7.63;;;;;;;;;;20595063;28;20094;-66
2022/10/05 18:17:45;;;;;;;24.73;8.02;;;;;;;;;;20590721;28;20046;-67
2022/10/05 18:28:08;;;;;;;29.63;7.18;;;;;;;;;;20592407;28;20223;-66
2022/10/05 18:38:20;;;;;;;14.25;4.57;;;;;;;;;;20581940;28;20110;-62
2022/10/05 18:48:43;;;;;;;36.15;9.38;;;;;;;;;;20581426;28;20081;-66
2022/10/05 18:58:49;;;;;;;32.38;8.68;;;;;;;;;;20581361;28;20122;-65
2022/10/05 19:08:54;;;;;;;24.73;7.35;;;;;;;;;;20583078;28;20051;-66
2022/10/05 19:19:03;;;;;;;25.08;7.82;;;;;;;;;;20589171;28;20053;-66
2022/10/05 19:29:08;;;;;;;30.27;9.32;;;;;;;;;;20588286;28;20047;-63
2022/10/05 19:39:29;;;;;;;27.92;8.95;;;;;;;;;;20587393;28;20074;-63
2022/10/05 19:49:42;;;;;;;31.73;9.90;;;;;;;;;;20586471;28;20059;-63
2022/10/05 19:59:45;;;;;;;31.88;7.85;;;;;;;;;;20586883;28;20129;-66
2022/10/05 20:09:49;;;;;;;22.52;6.88;;;;;;;;;;20586106;28;20050;-65
2022/10/05 20:30:14;;;;;;;24.70;4.55;;;;;;;;;;20585535;28;20155;-65
2022/10/05 20:40:18;;;;;;;44.10;17.58;;;;;;;;;;20595126;28;20105;-63
2022/10/05 20:50:21;;;;;;;30.67;8.52;;;;;;;;;;20599962;28;20393;-66
2022/10/05 21:00:23;;;;;;;21.60;4.45;;;;;;;;;;20614648;28;20047;-63
2022/10/05 21:10:25;;;;;;;21.30;4.25;;;;;;;;;;20598219;28;20055;-63
2022/10/05 21:20:27;;;;;;;27.35;4.82;;;;;;;;;;20599088;28;20480;-64
2022/10/05 21:30:29;;;;;;;27.48;5.63;;;;;;;;;;20596841;28;20051;-64
2022/10/05 21:40:31;;;;;;;22.77;5.20;;;;;;;;;;20595928;28;20051;-65
2022/10/05 21:50:34;;;;;;;28.23;8.13;;;;;;;;;;20595155;28;20063;-66
2022/10/05 22:00:36;;;;;;;22.10;5.95;;;;;;;;;;20595344;28;20182;-65
2022/10/05 22:10:38;;;;;;;23.95;5.18;;;;;;;;;;20594631;28;20055;-65
2022/10/05 22:20:40;;;;;;;12.85;3.67;;;;;;;;;;20593695;28;20510;-62
2022/10/05 22:30:44;;;;;;;22.85;4.20;;;;;;;;;;20592765;28;20106;-65
2022/10/05 22:40:46;;;;;;;20.77;4.93;;;;;;;;;;20593686;28;20444;-64
2022/10/05 22:50:48;;;;;;;18.88;5.25;;;;;;;;;;20591629;28;20133;-64
2022/10/05 23:00:50;;;;;;;16.25;4.50;;;;;;;;;;20588895;28;20051;-64
2022/10/05 23:10:52;;;;;;;15.38;3.05;;;;;;;;;;20589488;28;20054;-63
2022/10/05 23:20:55;;;;;;;11.80;2.88;;;;;;;;;;20588792;28;20047;-62
2022/10/05 23:30:58;;;;;;;9.32;2.33;;;;;;;;;;20587640;28;20058;-62
2022/10/05 23:41:01;;;;;;;7.63;1.88;;;;;;;;;;20587874;28;20408;-64
2022/10/05 23:51:07;;;;;;;10.77;2.05;;;;;;;;;;20587185;28;20055;-64
